createdAt,value
2023-10-19T00:02:21.016Z,95545.31
2023-10-19T00:04:50.800Z,95552.03
2023-10-19T00:07:19.764Z,95552.25
2023-10-19T00:09:49.373Z,95551.56
2023-10-19T00:12:23.296Z,95544.78
2023-10-19T00:14:50.823Z,95547.03
2023-10-19T00:17:22.177Z,95550.69
2023-10-19T00:19:59.193Z,95545.22
2023-10-19T00:22:32.168Z,95547.50
2023-10-19T00:25:00.343Z,95538.88
2023-10-19T00:27:30.169Z,95541.00
2023-10-19T00:30:07.275Z,95530.31
2023-10-19T00:32:39.894Z,95529.50
2023-10-19T00:35:27.936Z,95535.78
2023-10-19T00:38:19.012Z,95532.69
2023-10-19T00:40:54.227Z,95537.00
2023-10-19T00:43:34.058Z,95533.03
2023-10-19T00:46:08.340Z,95526.59
2023-10-19T00:48:37.492Z,95515.16
2023-10-19T00:51:10.686Z,95513.31
2023-10-19T00:53:41.298Z,95497.06
2023-10-19T00:56:12.004Z,95491.63
2023-10-19T00:58:42.700Z,95483.44
2023-10-19T01:01:11.668Z,95474.50
2023-10-19T01:03:40.651Z,95486.88
2023-10-19T01:06:13.357Z,95475.88
2023-10-19T01:08:45.720Z,95478.81
2023-10-19T01:11:16.764Z,95471.84
2023-10-19T01:13:47.847Z,95485.38
2023-10-19T01:16:22.347Z,95483.44
2023-10-19T01:18:55.777Z,95491.97
2023-10-19T01:21:37.402Z,95491.28
2023-10-19T01:24:13.424Z,95496.72
2023-10-19T01:26:42.217Z,95497.41
2023-10-19T01:29:14.913Z,95488.03
2023-10-19T01:31:57.295Z,95492.47
2023-10-19T01:34:28.034Z,95486.84
2023-10-19T01:36:57.292Z,95484.66
2023-10-19T01:39:26.808Z,95486.59
2023-10-19T01:41:55.156Z,95486.03
2023-10-19T01:44:22.675Z,95488.47
2023-10-19T01:46:51.051Z,95495.59
2023-10-19T01:49:27.368Z,95485.94
2023-10-19T01:51:56.836Z,95495.00
2023-10-19T01:54:26.331Z,95478.31
2023-10-19T01:56:57.761Z,95476.72
2023-10-19T01:59:28.610Z,95469.50
2023-10-19T02:01:59.075Z,95469.84
2023-10-19T02:04:27.339Z,95465.44
2023-10-19T02:07:01.562Z,95470.78
2023-10-19T02:09:33.703Z,95466.69
2023-10-19T02:12:05.793Z,95466.13
2023-10-19T02:14:35.901Z,95466.81
2023-10-19T02:17:05.240Z,95471.81
2023-10-19T02:19:34.190Z,95477.38
2023-10-19T02:22:05.434Z,95486.44
2023-10-19T02:24:35.330Z,95486.88
2023-10-19T02:27:02.755Z,95488.91
2023-10-19T02:29:32.232Z,95481.19
2023-10-19T02:32:05.121Z,95483.56
2023-10-19T02:34:35.942Z,95481.09
2023-10-19T02:37:03.637Z,95476.34
2023-10-19T02:39:32.415Z,95467.97
2023-10-19T02:42:04.149Z,95463.66
2023-10-19T02:44:32.938Z,95455.25
2023-10-19T02:47:01.532Z,95434.75
2023-10-19T02:49:32.206Z,95416.16
2023-10-19T02:52:05.044Z,95398.31
2023-10-19T02:54:36.319Z,95389.72
2023-10-19T02:57:09.009Z,95392.69
2023-10-19T02:59:37.222Z,95383.38
2023-10-19T03:02:17.566Z,95378.28
2023-10-19T03:04:46.546Z,95361.59
2023-10-19T03:07:16.892Z,95356.63
2023-10-19T03:09:50.350Z,95364.56
2023-10-19T03:12:21.051Z,95359.38
2023-10-19T03:14:49.497Z,95353.59
2023-10-19T03:17:18.647Z,95353.59
2023-10-19T03:19:47.360Z,95350.44
2023-10-19T03:22:16.302Z,95361.50
2023-10-19T03:24:44.895Z,95368.78
2023-10-19T03:27:16.489Z,95352.25
2023-10-19T03:29:49.370Z,95345.78
2023-10-19T03:32:20.181Z,95325.94
2023-10-19T03:34:50.910Z,95312.50
2023-10-19T03:37:21.444Z,95306.03
2023-10-19T03:39:52.663Z,95326.66
2023-10-19T03:42:22.305Z,95340.09
2023-10-19T03:44:55.016Z,95341.09
2023-10-19T03:47:29.238Z,95340.84
2023-10-19T03:50:01.131Z,95342.41
2023-10-19T03:52:31.775Z,95349.44
2023-10-19T03:55:01.907Z,95357.88
2023-10-19T03:57:31.701Z,95349.00
2023-10-19T04:00:01.733Z,95343.91
2023-10-19T04:02:39.645Z,95360.16
2023-10-19T04:05:11.571Z,95369.88
2023-10-19T04:07:40.304Z,95379.81
2023-10-19T04:10:30.979Z,95379.09
2023-10-19T04:13:01.737Z,95377.63
2023-10-19T04:15:35.014Z,95378.06
2023-10-19T04:18:09.739Z,95384.19
2023-10-19T04:20:55.696Z,95376.03
2023-10-19T04:23:28.399Z,95379.09
2023-10-19T04:26:05.069Z,95380.78
2023-10-19T04:28:39.638Z,95373.78
2023-10-19T04:31:14.850Z,95374.19
2023-10-19T04:33:47.073Z,95375.16
2023-10-19T04:36:22.558Z,95363.38
2023-10-19T04:38:51.013Z,95354.75
2023-10-19T04:41:19.758Z,95342.53
2023-10-19T04:43:51.428Z,95339.22
2023-10-19T04:46:21.602Z,95336.50
2023-10-19T04:48:50.800Z,95340.72
2023-10-19T04:51:19.569Z,95340.38
2023-10-19T04:53:47.968Z,95331.78
2023-10-19T04:56:16.712Z,95333.16
2023-10-19T04:58:45.447Z,95330.44
2023-10-19T05:01:14.065Z,95313.84
2023-10-19T05:03:44.304Z,95314.09
2023-10-19T05:06:13.743Z,95305.13
2023-10-19T05:08:42.132Z,95305.31
2023-10-19T05:11:10.561Z,95311.47
2023-10-19T05:13:40.138Z,95307.06
2023-10-19T05:16:09.861Z,95308.19
2023-10-19T05:18:38.342Z,95321.03
2023-10-19T05:21:08.222Z,95348.69
2023-10-19T05:23:36.901Z,95330.69
2023-10-19T05:26:07.923Z,95322.47
2023-10-19T05:28:36.585Z,95315.78
2023-10-19T05:31:05.520Z,95303.56
2023-10-19T05:33:34.274Z,95299.88
2023-10-19T05:36:03.848Z,95309.34
2023-10-19T05:38:34.157Z,95316.34
2023-10-19T05:41:02.742Z,95313.53
2023-10-19T05:43:31.736Z,95318.97
2023-10-19T05:46:00.299Z,95314.13
2023-10-19T05:48:28.850Z,95307.69
2023-10-19T05:50:57.743Z,95302.84
2023-10-19T05:53:26.128Z,95299.66
2023-10-19T05:55:55.864Z,95289.47
2023-10-19T05:58:24.662Z,95297.72
2023-10-19T06:00:53.653Z,95298.19
2023-10-19T06:03:22.158Z,95306.91
2023-10-19T06:05:50.581Z,95315.25
2023-10-19T06:08:19.016Z,95316.69
2023-10-19T06:10:57.576Z,95318.47
2023-10-19T06:13:26.245Z,95320.72
2023-10-19T06:15:54.785Z,95326.53
2023-10-19T06:18:23.744Z,95325.13
2023-10-19T06:20:56.234Z,95326.66
2023-10-19T06:23:24.600Z,95329.56
2023-10-19T06:25:53.560Z,95332.94
2023-10-19T06:28:23.465Z,95323.78
2023-10-19T06:30:52.125Z,95319.84
2023-10-19T06:33:20.927Z,95322.03
2023-10-19T06:35:49.346Z,95314.41
2023-10-19T06:38:19.781Z,95319.50
2023-10-19T06:40:48.781Z,95316.50
2023-10-19T06:43:17.976Z,95310.06
2023-10-19T06:45:48.374Z,95306.50
2023-10-19T06:48:16.961Z,95307.53
2023-10-19T06:50:49.672Z,95299.63
2023-10-19T06:53:19.866Z,95296.88
2023-10-19T06:55:49.058Z,95291.22
2023-10-19T06:58:20.964Z,95280.75
2023-10-19T07:00:57.726Z,95287.56
2023-10-19T07:03:27.060Z,95291.44
2023-10-19T07:05:55.711Z,95307.81
2023-10-19T07:08:24.986Z,95301.75
2023-10-19T07:10:54.807Z,95308.00
2023-10-19T07:13:23.946Z,95305.31
2023-10-19T07:15:53.924Z,95306.91
2023-10-19T07:18:23.008Z,95295.22
2023-10-19T07:20:51.841Z,95302.16
2023-10-19T07:23:23.369Z,95293.34
2023-10-19T07:25:56.039Z,95289.69
2023-10-19T07:28:27.481Z,95284.81
2023-10-19T07:30:58.299Z,95294.22
2023-10-19T07:33:27.673Z,95289.97
2023-10-19T07:35:56.749Z,95294.16
2023-10-19T07:38:26.760Z,95292.72
2023-10-19T07:40:55.421Z,95299.63
2023-10-19T07:43:24.833Z,95299.31
2023-10-19T07:45:54.527Z,95288.22
2023-10-19T07:48:26.069Z,95285.59
2023-10-19T07:50:55.549Z,95281.50
2023-10-19T07:53:25.852Z,95284.34
2023-10-19T07:55:55.279Z,95281.94
2023-10-19T07:58:23.650Z,95269.00
2023-10-19T08:00:53.667Z,95255.91
2023-10-19T08:03:23.574Z,95256.97
2023-10-19T08:05:52.103Z,95285.44
2023-10-19T08:08:20.490Z,95277.38
2023-10-19T08:10:49.352Z,95281.25
2023-10-19T08:13:18.154Z,95279.75
2023-10-19T08:15:47.212Z,95278.75
2023-10-19T08:18:16.171Z,95272.59
2023-10-19T08:20:46.744Z,95272.16
2023-10-19T08:23:17.758Z,95272.72
2023-10-19T08:25:56.189Z,95271.00
2023-10-19T08:28:25.855Z,95266.06
2023-10-19T08:31:01.637Z,95270.78
2023-10-19T08:33:34.755Z,95273.50
2023-10-19T08:36:05.282Z,95264.19
2023-10-19T08:38:34.534Z,95261.47
2023-10-19T08:41:04.593Z,95253.66
2023-10-19T08:43:35.071Z,95266.00
2023-10-19T08:46:05.026Z,95260.09
2023-10-19T08:48:37.845Z,95274.09
2023-10-19T08:51:12.924Z,95295.66
2023-10-19T08:53:41.933Z,95283.81
2023-10-19T08:56:13.285Z,95289.78
2023-10-19T08:58:42.632Z,95294.03
2023-10-19T09:01:11.357Z,95284.56
2023-10-19T09:03:41.914Z,95287.41
2023-10-19T09:06:15.873Z,95289.66
2023-10-19T09:08:48.065Z,95286.84
2023-10-19T09:11:20.628Z,95277.59
2023-10-19T09:13:53.199Z,95281.03
2023-10-19T09:16:23.745Z,95274.28
2023-10-19T09:18:53.747Z,95263.34
2023-10-19T09:21:26.289Z,95281.97
2023-10-19T09:23:57.013Z,95264.81
2023-10-19T09:26:26.714Z,95259.41
2023-10-19T09:28:56.283Z,95263.34
2023-10-19T09:31:26.096Z,95266.91
2023-10-19T09:33:55.593Z,95265.69
2023-10-19T09:36:31.147Z,95264.81
2023-10-19T09:39:00.071Z,95261.19
2023-10-19T09:41:30.564Z,95250.50
2023-10-19T09:44:07.722Z,95254.69
2023-10-19T09:46:41.320Z,95259.72
2023-10-19T09:49:13.111Z,95258.28
2023-10-19T09:52:02.477Z,95263.00
2023-10-19T09:54:50.630Z,95272.31
2023-10-19T09:57:30.025Z,95273.47
2023-10-19T10:00:13.096Z,95267.69
2023-10-19T10:02:47.166Z,95270.03
2023-10-19T10:05:50.105Z,95268.03
2023-10-19T10:08:38.470Z,95260.56
2023-10-19T10:11:23.400Z,95259.38
2023-10-19T10:13:53.484Z,95253.09
2023-10-19T10:16:26.283Z,95248.44
2023-10-19T10:19:01.995Z,95253.59
2023-10-19T10:21:31.970Z,95245.13
2023-10-19T10:24:05.418Z,95245.22
2023-10-19T10:27:01.261Z,95234.78
2023-10-19T10:29:30.328Z,95228.53
2023-10-19T10:31:59.876Z,95217.22
2023-10-19T10:34:46.919Z,95207.94
2023-10-19T10:37:16.343Z,95206.13
2023-10-19T10:39:46.799Z,95199.09
2023-10-19T10:42:16.903Z,95187.53
2023-10-19T10:44:47.280Z,95179.38
2023-10-19T10:47:23.078Z,95170.06
2023-10-19T10:49:54.156Z,95163.06
2023-10-19T10:52:29.018Z,95151.31
2023-10-19T10:54:59.615Z,95152.13
2023-10-19T10:57:34.444Z,95148.72
2023-10-19T11:00:09.621Z,95148.09
2023-10-19T11:02:41.447Z,95144.09
2023-10-19T11:05:13.397Z,95154.31
2023-10-19T11:07:43.257Z,95144.63
2023-10-19T11:10:13.174Z,95159.16
2023-10-19T11:12:41.650Z,95156.50
2023-10-19T11:15:11.940Z,95153.34
2023-10-19T11:17:46.929Z,95144.06
2023-10-19T11:20:24.888Z,95151.16
2023-10-19T11:22:57.178Z,95143.78
2023-10-19T11:25:30.393Z,95142.66
2023-10-19T11:28:00.652Z,95135.75
2023-10-19T11:30:32.627Z,95138.25
2023-10-19T11:33:02.467Z,95138.44
2023-10-19T11:35:33.593Z,95141.25
2023-10-19T11:38:05.233Z,95136.19
2023-10-19T11:40:35.209Z,95133.38
2023-10-19T11:43:04.251Z,95132.59
2023-10-19T11:45:33.083Z,95121.22
2023-10-19T11:48:01.665Z,95127.13
2023-10-19T11:50:30.151Z,95125.56
2023-10-19T11:52:58.567Z,95132.59
2023-10-19T11:55:27.027Z,95133.69
2023-10-19T11:57:57.209Z,95126.56
2023-10-19T12:00:34.868Z,95128.47
2023-10-19T12:03:03.509Z,95128.41
2023-10-19T12:05:31.974Z,95124.91
2023-10-19T12:08:00.433Z,95117.50
2023-10-19T12:10:34.337Z,95112.41
2023-10-19T12:13:05.125Z,95112.47
2023-10-19T12:15:34.638Z,95103.06
2023-10-19T12:18:04.043Z,95098.31
2023-10-19T12:20:36.787Z,95103.78
2023-10-19T12:23:06.882Z,95087.22
2023-10-19T12:25:46.537Z,95082.81
2023-10-19T12:28:26.045Z,95084.41
2023-10-19T12:30:54.738Z,95073.81
2023-10-19T12:33:23.909Z,95064.38
2023-10-19T12:35:55.167Z,95062.03
2023-10-19T12:38:23.689Z,95063.53
2023-10-19T12:40:53.521Z,95069.81
2023-10-19T12:43:24.156Z,95075.66
2023-10-19T12:45:54.976Z,95081.22
2023-10-19T12:48:26.672Z,95081.31
2023-10-19T12:50:55.822Z,95085.03
2023-10-19T12:53:26.045Z,95083.09
2023-10-19T12:55:54.731Z,95079.97
2023-10-19T12:58:24.739Z,95076.47
2023-10-19T13:00:53.179Z,95078.47
2023-10-19T13:03:23.093Z,95074.13
2023-10-19T13:05:51.664Z,95061.56
2023-10-19T13:08:20.469Z,95061.88
2023-10-19T13:10:53.411Z,95062.25
2023-10-19T13:13:25.248Z,95067.84
2023-10-19T13:15:55.262Z,95070.97
2023-10-19T13:18:29.301Z,95058.03
2023-10-19T13:21:00.114Z,95051.34
2023-10-19T13:23:29.521Z,95039.50
2023-10-19T13:26:12.828Z,95037.22
2023-10-19T13:28:42.341Z,95037.97
2023-10-19T13:31:14.803Z,95023.06
2023-10-19T13:33:47.302Z,95028.59
2023-10-19T13:36:17.168Z,95035.63
2023-10-19T13:38:46.290Z,95048.94
2023-10-19T13:41:17.931Z,95052.44
2023-10-19T13:43:46.513Z,95053.63
2023-10-19T13:46:16.494Z,95044.88
2023-10-19T13:48:45.481Z,95041.22
2023-10-19T13:51:20.578Z,95039.31
2023-10-19T13:53:51.133Z,95045.25
2023-10-19T13:56:19.949Z,95055.13
2023-10-19T13:58:49.107Z,95044.63
2023-10-19T14:01:20.065Z,95041.50
2023-10-19T14:03:48.556Z,95050.56
2023-10-19T14:06:17.976Z,95045.09
2023-10-19T14:08:46.457Z,95032.13
2023-10-19T14:11:14.854Z,95033.31
2023-10-19T14:13:43.993Z,95027.06
2023-10-19T14:16:13.009Z,95030.16
2023-10-19T14:18:44.840Z,95032.94
2023-10-19T14:21:15.968Z,95023.13
2023-10-19T14:23:45.882Z,95027.81
2023-10-19T14:26:15.033Z,95038.78
2023-10-19T14:28:43.959Z,95051.75
2023-10-19T14:31:13.459Z,95056.00
2023-10-19T14:33:44.680Z,95048.53
2023-10-19T14:36:13.633Z,95049.31
2023-10-19T14:38:44.536Z,95049.69
2023-10-19T14:41:13.188Z,95038.69
2023-10-19T14:43:41.630Z,95040.25
2023-10-19T14:46:10.112Z,95025.69
2023-10-19T14:48:38.521Z,95020.59
2023-10-19T14:51:08.660Z,95017.41
2023-10-19T14:53:37.348Z,95013.50
2023-10-19T14:56:07.328Z,95013.13
2023-10-19T14:58:35.808Z,95014.66
2023-10-19T15:01:04.383Z,95011.94
2023-10-19T15:03:32.830Z,95010.00
2023-10-19T15:06:01.427Z,95006.13
2023-10-19T15:08:32.937Z,95011.19
2023-10-19T15:11:01.556Z,95012.75
2023-10-19T15:13:30.782Z,95015.88
2023-10-19T15:15:59.172Z,95012.75
2023-10-19T15:18:28.504Z,94998.22
2023-10-19T15:20:56.986Z,94997.84
2023-10-19T15:23:27.151Z,94993.50
2023-10-19T15:25:56.968Z,94989.97
2023-10-19T15:28:25.392Z,94982.09
2023-10-19T15:30:54.405Z,94978.56
2023-10-19T15:33:23.010Z,94968.38
2023-10-19T15:35:52.831Z,94969.91
2023-10-19T15:38:22.865Z,94966.72
2023-10-19T15:40:51.423Z,94960.44
2023-10-19T15:43:23.993Z,94967.47
2023-10-19T15:45:52.902Z,94966.63
2023-10-19T15:48:22.591Z,94960.75
2023-10-19T15:50:51.024Z,94959.94
2023-10-19T15:53:19.517Z,94957.19
2023-10-19T15:55:48.281Z,94959.16
2023-10-19T15:58:19.475Z,94965.03
2023-10-19T16:00:49.313Z,94956.03
2023-10-19T16:03:18.184Z,94958.31
2023-10-19T16:05:46.763Z,94967.31
2023-10-19T16:08:15.268Z,94978.69
2023-10-19T16:10:44.007Z,94991.19
2023-10-19T16:13:14.287Z,94997.84
2023-10-19T16:15:42.907Z,94995.50
2023-10-19T16:18:13.309Z,94968.47
2023-10-19T16:20:41.729Z,94964.50
2023-10-19T16:23:10.202Z,94946.50
2023-10-19T16:25:38.606Z,94943.72
2023-10-19T16:28:07.420Z,94944.03
2023-10-19T16:30:36.248Z,94942.78
2023-10-19T16:33:05.645Z,94941.56
2023-10-19T16:35:35.487Z,94935.69
2023-10-19T16:38:05.255Z,94929.84
2023-10-19T16:40:33.655Z,94923.97
2023-10-19T16:43:03.015Z,94918.88
2023-10-19T16:45:31.470Z,94916.47
2023-10-19T16:47:59.968Z,94907.81
2023-10-19T16:50:29.798Z,94910.88
2023-10-19T16:52:59.717Z,94899.94
2023-10-19T16:55:28.371Z,94919.84
2023-10-19T16:58:00.249Z,94938.22
2023-10-19T17:00:35.032Z,94946.81
2023-10-19T17:03:03.662Z,94942.50
2023-10-19T17:05:32.261Z,94918.25
2023-10-19T17:08:02.301Z,94907.75
2023-10-19T17:10:31.010Z,94901.53
2023-10-19T17:12:59.553Z,94882.00
2023-10-19T17:15:28.049Z,94877.72
2023-10-19T17:17:56.497Z,94883.28
2023-10-19T17:20:26.170Z,94888.34
2023-10-19T17:22:55.093Z,94892.28
2023-10-19T17:25:25.353Z,94891.91
2023-10-19T17:27:54.077Z,94889.91
2023-10-19T17:30:22.676Z,94887.50
2023-10-19T17:32:54.394Z,94890.22
2023-10-19T17:35:25.070Z,94876.53
2023-10-19T17:37:53.596Z,94872.97
2023-10-19T17:40:22.137Z,94873.75
2023-10-19T17:42:52.769Z,94866.75
2023-10-19T17:45:21.312Z,94864.00
2023-10-19T17:47:51.502Z,94871.88
2023-10-19T17:50:21.160Z,94872.63
2023-10-19T17:52:50.205Z,94863.66
2023-10-19T17:55:21.701Z,94866.38
2023-10-19T17:57:54.220Z,94855.84
2023-10-19T18:00:22.825Z,94863.25
2023-10-19T18:02:52.699Z,94863.63
2023-10-19T18:05:22.066Z,94861.66
2023-10-19T18:07:53.920Z,94865.53
2023-10-19T18:10:29.765Z,94860.03
2023-10-19T18:12:59.888Z,94861.94
2023-10-19T18:15:28.749Z,94859.91
2023-10-19T18:17:57.211Z,94863.00
2023-10-19T18:20:25.695Z,94861.03
2023-10-19T18:22:54.165Z,94858.28
2023-10-19T18:25:24.844Z,94853.59
2023-10-19T18:27:53.288Z,94855.16
2023-10-19T18:30:23.613Z,94844.22
2023-10-19T18:32:53.275Z,94843.44
2023-10-19T18:35:21.875Z,94848.13
2023-10-19T18:37:50.597Z,94859.13
2023-10-19T18:40:21.521Z,94843.47
2023-10-19T18:42:49.884Z,94843.50
2023-10-19T18:45:19.325Z,94825.91
2023-10-19T18:47:49.597Z,94824.03
2023-10-19T18:50:33.675Z,94810.38
2023-10-19T18:53:04.865Z,94809.63
2023-10-19T18:55:33.841Z,94808.88
2023-10-19T18:58:03.922Z,94803.75
2023-10-19T19:00:34.233Z,94780.28
2023-10-19T19:03:04.742Z,94783.03
2023-10-19T19:05:34.277Z,94765.84
2023-10-19T19:08:02.809Z,94749.81
2023-10-19T19:10:34.411Z,94733.38
2023-10-19T19:13:03.370Z,94734.94
2023-10-19T19:15:32.985Z,94765.44
2023-10-19T19:18:02.429Z,94769.78
2023-10-19T19:20:32.433Z,94790.47
2023-10-19T19:23:00.888Z,94804.13
2023-10-19T19:25:29.294Z,94795.88
2023-10-19T19:27:59.444Z,94797.00
2023-10-19T19:30:28.435Z,94802.41
2023-10-19T19:32:56.887Z,94799.66
2023-10-19T19:35:25.470Z,94824.63
2023-10-19T19:37:56.690Z,94809.69
2023-10-19T19:40:26.372Z,94801.09
2023-10-19T19:42:55.234Z,94802.22
2023-10-19T19:45:24.150Z,94814.28
2023-10-19T19:47:54.453Z,94813.16
2023-10-19T19:50:23.556Z,94806.16
2023-10-19T19:52:53.366Z,94817.09
2023-10-19T19:55:23.671Z,94819.03
2023-10-19T19:57:52.495Z,94813.13
2023-10-19T20:00:23.544Z,94794.75
2023-10-19T20:02:52.710Z,94786.06
2023-10-19T20:05:22.792Z,94786.38
2023-10-19T20:07:52.063Z,94792.97
2023-10-19T20:10:20.697Z,94789.53
2023-10-19T20:12:50.553Z,94783.38
2023-10-19T20:15:19.217Z,94773.66
2023-10-19T20:17:48.039Z,94766.69
2023-10-19T20:20:18.231Z,94765.25
2023-10-19T20:22:47.072Z,94778.91
2023-10-19T20:25:16.125Z,94783.22
2023-10-19T20:27:45.594Z,94780.88
2023-10-19T20:30:17.253Z,94772.72
2023-10-19T20:32:47.329Z,94772.34
2023-10-19T20:35:18.890Z,94761.41
2023-10-19T20:37:47.970Z,94765.69
2023-10-19T20:40:22.472Z,94760.59
2023-10-19T20:42:54.370Z,94752.41
2023-10-19T20:45:27.065Z,94754.38
2023-10-19T20:47:57.572Z,94751.28
2023-10-19T20:50:28.800Z,94752.09
2023-10-19T20:53:00.861Z,94743.13
2023-10-19T20:55:29.825Z,94732.94
2023-10-19T20:57:58.302Z,94731.00
2023-10-19T21:00:28.413Z,94738.84
2023-10-19T21:02:56.982Z,94731.03
2023-10-19T21:05:26.419Z,94735.69
2023-10-19T21:07:56.757Z,94729.06
2023-10-19T21:10:25.424Z,94726.31
2023-10-19T21:12:53.920Z,94734.88
2023-10-19T21:15:22.590Z,94724.72
2023-10-19T21:17:54.380Z,94729.34
2023-10-19T21:20:23.385Z,94728.97
2023-10-19T21:22:54.129Z,94734.03
2023-10-19T21:25:25.658Z,94727.38
2023-10-19T21:27:55.799Z,94719.16
2023-10-19T21:30:24.436Z,94721.50
2023-10-19T21:32:54.280Z,94708.63
2023-10-19T21:35:22.898Z,94691.81
2023-10-19T21:37:52.138Z,94681.66
2023-10-19T21:40:20.775Z,94670.31
2023-10-19T21:42:49.088Z,94666.38
2023-10-19T21:45:17.641Z,94662.88
2023-10-19T21:47:46.300Z,94662.50
2023-10-19T21:50:16.539Z,94659.00
2023-10-19T21:52:45.023Z,94641.44
2023-10-19T21:55:13.631Z,94643.78
2023-10-19T21:57:42.814Z,94635.19
2023-10-19T22:00:16.352Z,94632.47
2023-10-19T22:05:25.658Z,94605.91
2023-10-19T22:07:54.769Z,94602.00
2023-10-19T22:10:24.480Z,94597.31
2023-10-19T22:12:53.610Z,94612.94
2023-10-19T22:15:22.643Z,94605.13
2023-10-19T22:17:51.952Z,94589.50
2023-10-19T22:20:22.400Z,94582.06
2023-10-19T22:22:51.483Z,94569.22
2023-10-19T22:25:22.434Z,94561.78
2023-10-19T22:27:53.429Z,94563.00
2023-10-19T22:30:23.293Z,94572.72
2023-10-19T22:32:52.529Z,94559.88
2023-10-19T22:35:22.410Z,94553.59
2023-10-19T22:37:51.871Z,94570.75
2023-10-19T22:40:21.017Z,94571.88
2023-10-19T22:42:49.801Z,94575.38
2023-10-19T22:45:19.877Z,94563.66
2023-10-19T22:47:48.794Z,94555.41
2023-10-19T22:50:18.802Z,94547.97
2023-10-19T22:52:48.805Z,94533.84
2023-10-19T22:55:19.235Z,94529.91
2023-10-19T22:57:52.526Z,94518.56
2023-10-19T23:00:21.444Z,94511.91
2023-10-19T23:02:50.976Z,94501.41
2023-10-19T23:05:20.144Z,94498.69
2023-10-19T23:07:52.564Z,94502.56
2023-10-19T23:10:22.673Z,94511.16
2023-10-19T23:12:52.350Z,94525.25
2023-10-19T23:15:32.299Z,94530.72
2023-10-19T23:18:01.532Z,94521.31
2023-10-19T23:20:31.343Z,94500.63
2023-10-19T23:23:05.299Z,94488.16
2023-10-19T23:25:35.454Z,94485.41
2023-10-19T23:28:06.401Z,94485.38
2023-10-19T23:30:36.748Z,94479.53
2023-10-19T23:33:08.643Z,94477.97
2023-10-19T23:35:37.786Z,94476.03
2023-10-19T23:38:08.719Z,94479.16
2023-10-19T23:40:37.327Z,94483.84
2023-10-19T23:43:07.512Z,94473.75
2023-10-19T23:45:40.098Z,94481.13
2023-10-19T23:48:12.121Z,94479.59
2023-10-19T23:50:40.829Z,94474.88
2023-10-19T23:53:11.684Z,94457.69
2023-10-19T23:55:41.964Z,94447.56
2023-10-19T23:58:10.664Z,94442.91
